Time,TemperatureF,DewpointF,PressureIn,WindDirection,WindDirectionDegrees,WindSpeedMPH,WindSpeedGustMPH,Humidity,HourlyPrecipIn,Conditions,Clouds,dailyrainin,SoftwareType,DateUTC
2013-09-09 00:14:00,71.0,68.0,29.98,SSE,167,0.0,0.0,91,0.00,,,0.00,,2013-09-09 04:14:00,
2013-09-09 00:24:00,71.0,68.0,29.99,SSE,166,0.0,0.0,91,0.00,,,0.00,,2013-09-09 04:24:00,
2013-09-09 00:54:00,70.0,67.0,29.99,SSE,166,0.0,0.0,91,0.00,,,0.00,,2013-09-09 04:54:00,
2013-09-09 01:23:00,70.0,67.0,30.00,SSE,166,0.0,0.0,91,0.00,,,0.00,,2013-09-09 05:23:00,
2013-09-09 01:53:00,69.0,66.0,30.00,SSE,166,0.0,0.0,91,0.00,,,0.00,,2013-09-09 05:53:00,
2013-09-09 02:22:00,69.0,66.0,30.00,SSE,166,0.0,0.0,91,0.00,,,0.00,,2013-09-09 06:22:00,
2013-09-09 02:52:00,69.0,66.0,30.00,SSE,167,0.0,0.0,91,0.00,,,0.00,,2013-09-09 06:52:00,
2013-09-09 03:22:00,69.0,66.0,29.99,SSE,166,0.0,0.0,91,0.00,,,0.00,,2013-09-09 07:22:00,
2013-09-09 03:52:00,68.0,65.0,29.99,SSE,166,0.0,0.0,91,0.00,,,0.00,,2013-09-09 07:52:00,
2013-09-09 04:22:00,68.0,65.0,30.00,SSE,167,0.0,0.0,91,0.00,,,0.00,,2013-09-09 08:22:00,
2013-09-09 04:32:00,68.0,65.0,30.00,SSE,167,0.0,0.0,91,0.00,,,0.00,,2013-09-09 08:32:00,
2013-09-09 04:52:00,68.0,66.0,30.00,SSE,167,0.0,0.0,92,0.00,,,0.00,,2013-09-09 08:52:00,
2013-09-09 05:22:00,68.0,66.0,30.01,SSE,167,0.0,0.0,92,0.00,,,0.00,,2013-09-09 09:22:00,
2013-09-09 05:54:00,68.0,66.0,30.01,SSE,166,0.0,1.0,92,0.00,,,0.00,,2013-09-09 09:54:00,
2013-09-09 06:23:00,67.0,65.0,30.03,SSE,167,0.0,0.0,92,0.00,,,0.00,,2013-09-09 10:23:00,
2013-09-09 06:52:00,67.0,65.0,30.03,SSE,167,0.0,0.0,92,0.00,,,0.00,,2013-09-09 10:52:00,
2013-09-09 07:22:00,67.0,65.0,30.05,SSE,167,0.0,0.0,92,0.00,,,0.00,,2013-09-09 11:22:00,
2013-09-09 07:52:00,68.0,66.0,30.06,SSE,166,0.0,0.0,92,0.00,,,0.00,,2013-09-09 11:52:00,
2013-09-09 08:22:00,71.0,69.0,30.07,SSE,167,0.0,1.0,93,0.00,,,0.00,,2013-09-09 12:22:00,
2013-09-09 08:52:00,75.0,72.0,30.08,SSE,166,0.0,1.0,90,0.00,,,0.00,,2013-09-09 12:52:00,
2013-09-09 09:22:00,79.0,74.0,30.09,SSE,166,0.0,1.0,86,0.00,,,0.00,,2013-09-09 13:22:00,
2013-09-09 09:52:00,82.0,76.0,30.09,SSE,167,1.0,2.0,81,0.00,,,0.00,,2013-09-09 13:52:00,
2013-09-09 10:22:00,84.0,75.0,30.10,SSE,167,1.0,3.0,75,0.00,,,0.00,,2013-09-09 14:22:00,
2013-09-09 10:52:00,84.0,74.0,30.11,SSE,167,1.0,2.0,73,0.00,,,0.00,,2013-09-09 14:52:00,
2013-09-09 11:22:00,86.0,75.0,30.11,SSE,166,1.0,3.0,69,0.00,,,0.00,,2013-09-09 15:22:00,
2013-09-09 11:53:00,88.0,75.0,30.11,SSE,167,2.0,4.0,65,0.00,,,0.00,,2013-09-09 15:53:00,
2013-09-09 12:24:00,87.0,75.0,30.12,SSE,167,2.0,4.0,67,0.00,,,0.00,,2013-09-09 16:24:00,
2013-09-09 12:54:00,84.0,75.0,30.12,SSE,167,3.0,9.0,75,0.00,,,0.00,,2013-09-09 16:54:00,
2013-09-09 13:23:00,86.0,75.0,30.11,SSE,166,1.0,6.0,71,0.00,,,0.00,,2013-09-09 17:23:00,
2013-09-09 13:53:00,87.0,74.0,30.11,SSE,166,3.0,6.0,66,0.00,,,0.00,,2013-09-09 17:53:00,
2013-09-09 14:02:00,87.0,74.0,30.11,SSE,166,3.0,6.0,66,0.00,,,0.00,,2013-09-09 18:02:00,
2013-09-09 14:22:00,87.0,72.0,30.11,SSE,166,2.0,5.0,62,0.00,,,0.00,,2013-09-09 18:22:00,
2013-09-09 14:52:00,88.0,72.0,30.11,SSE,166,2.0,5.0,60,0.00,,,0.00,,2013-09-09 18:52:00,
2013-09-09 15:22:00,88.0,72.0,30.11,SSE,166,2.0,4.0,60,0.00,,,0.00,,2013-09-09 19:22:00,
2013-09-09 15:52:00,88.0,73.0,30.10,SSE,167,3.0,6.0,62,0.00,,,0.00,,2013-09-09 19:52:00,
2013-09-09 16:22:00,85.0,71.0,30.10,SSE,166,1.0,4.0,64,0.00,,,0.00,,2013-09-09 20:22:00,
2013-09-09 16:32:00,85.0,71.0,30.10,SSE,166,1.0,4.0,64,0.00,,,0.00,,2013-09-09 20:32:00,
2013-09-09 16:53:00,84.0,70.0,30.11,SSE,166,1.0,3.0,64,0.00,,,0.00,,2013-09-09 20:53:00,
2013-09-09 17:22:00,83.0,71.0,30.11,SSE,167,1.0,5.0,68,0.00,,,0.00,,2013-09-09 21:22:00,
2013-09-09 17:34:00,83.0,71.0,30.11,SSE,167,1.0,5.0,68,0.00,,,0.00,,2013-09-09 21:34:00,
2013-09-09 18:24:00,83.0,72.0,30.11,SSE,166,1.0,2.0,69,0.00,,,0.00,,2013-09-09 22:24:00,
2013-09-09 18:34:00,83.0,72.0,30.11,SSE,166,1.0,2.0,69,0.00,,,0.00,,2013-09-09 22:34:00,
2013-09-09 18:54:00,81.0,72.0,30.11,SSE,166,0.0,2.0,73,0.00,,,0.00,,2013-09-09 22:54:00,
2013-09-09 19:12:00,81.0,72.0,30.12,SSE,166,0.0,2.0,75,0.00,,,0.00,,2013-09-09 23:12:00,
2013-09-09 19:22:00,81.0,72.0,30.12,SSE,166,0.0,2.0,75,0.00,,,0.00,,2013-09-09 23:22:00,
2013-09-09 19:42:00,77.0,72.0,30.11,SSE,166,0.0,0.0,84,0.00,,,0.00,,2013-09-09 23:42:00,
2013-09-09 19:52:00,77.0,72.0,30.11,SSE,166,0.0,0.0,84,0.00,,,0.00,,2013-09-09 23:52:00,
2013-09-09 20:02:00,77.0,72.0,30.11,SSE,166,0.0,0.0,84,0.00,,,0.00,,2013-09-10 00:02:00,
2013-09-09 21:22:00,72.0,69.0,30.13,SSE,166,0.0,0.0,91,0.00,,,0.00,,2013-09-10 01:22:00,
2013-09-09 21:52:00,71.0,68.0,30.13,SSE,166,0.0,0.0,91,0.00,,,0.00,,2013-09-10 01:52:00,
2013-09-09 22:03:00,71.0,68.0,30.13,SSE,166,0.0,0.0,91,0.00,,,0.00,,2013-09-10 02:03:00,
2013-09-09 22:22:00,71.0,68.0,30.14,SSE,167,0.0,0.0,91,0.00,,,0.00,,2013-09-10 02:22:00,
2013-09-09 22:52:00,71.0,68.0,30.14,SSE,167,0.0,0.0,91,0.00,,,0.00,,2013-09-10 02:52:00,
2013-09-09 23:22:00,70.0,67.0,30.15,SSE,167,0.0,0.0,91,0.00,,,0.00,,2013-09-10 03:22:00,
2013-09-09 23:55:00,70.0,67.0,30.16,SSE,167,0.0,0.0,91,0.00,,,0.00,,2013-09-10 03:55:00,